<?xml version='1.0' encoding='UTF-8'?>
<gpx xmlns="http://www.topografix.com/GPX/1/1" creator="www.balnam.be" version="1.1" xmlns:xsi="http://www.w3.org/2001/XMLSchema-instance" xsi:schemaLocation="http://www.topografix.com/GPX/1/1 http://www.topografix.com/GPX/1/1/gpx.xsd">
<trk>
<name>hchld36</name>
<cmt>v</cmt>
<desc>Lodelinsart Sentier n°36 Chaussée de Châtelet / Sentier Martin</desc>
<link href="https://chemins.be/lodelinsart/sentier/36"/><trkseg>
<trkpt lat="50.430290" lon="4.447071"><time>2026-05-03T00:35:31Z</time></trkpt>
<trkpt lat="50.429760" lon="4.446733"><time>2026-05-03T00:45:31Z</time></trkpt>
</trkseg></trk>
<trk>
<name>hchld36</name>
<cmt>r</cmt>
<desc>Lodelinsart Sentier n°36 Chaussée de Châtelet / Sentier Martin</desc>
<link href="https://chemins.be/lodelinsart/sentier/36"/><trkseg>
<trkpt lat="50.429760" lon="4.446733"><time>2026-05-03T00:45:31Z</time></trkpt>
<trkpt lat="50.429787" lon="4.446128"><time>2026-05-03T00:55:31Z</time></trkpt>
</trkseg></trk>
<trk>
<name>hchld36</name>
<cmt>v</cmt>
<desc>Lodelinsart Sentier n°36 Chaussée de Châtelet / Sentier Martin</desc>
<link href="https://chemins.be/lodelinsart/sentier/36"/><trkseg>
<trkpt lat="50.429787" lon="4.446128"><time>2026-05-03T00:55:31Z</time></trkpt>
<trkpt lat="50.429426" lon="4.445944"><time>2026-05-03T01:05:31Z</time></trkpt>
<trkpt lat="50.429266" lon="4.445803"><time>2026-05-03T01:15:31Z</time></trkpt>
<trkpt lat="50.428859" lon="4.445201"><time>2026-05-03T01:25:31Z</time></trkpt>
<trkpt lat="50.428574" lon="4.444873"><time>2026-05-03T01:35:31Z</time></trkpt>
<trkpt lat="50.428249" lon="4.444726"><time>2026-05-03T01:45:31Z</time></trkpt>
</trkseg></trk>
<trk>
<name>hchld36</name>
<cmt>d</cmt>
<desc>Lodelinsart Sentier n°36 Chaussée de Châtelet / Sentier Martin</desc>
<link href="https://chemins.be/lodelinsart/sentier/36"/><trkseg>
<trkpt lat="50.428249" lon="4.444726"><time>2026-05-03T01:45:31Z</time></trkpt>
<trkpt lat="50.428006" lon="4.444212"><time>2026-05-03T01:55:31Z</time></trkpt>
<trkpt lat="50.427918" lon="4.444070"><time>2026-05-03T02:05:31Z</time></trkpt>
<trkpt lat="50.427802" lon="4.443816"><time>2026-05-03T02:15:31Z</time></trkpt>
<trkpt lat="50.427651" lon="4.443380"><time>2026-05-03T02:25:31Z</time></trkpt>
<trkpt lat="50.427488" lon="4.443098"><time>2026-05-03T02:35:31Z</time></trkpt>
</trkseg></trk>
<trk>
<name>hchld36</name>
<cmt>v</cmt>
<desc>Lodelinsart Sentier n°36 Chaussée de Châtelet / Sentier Martin</desc>
<link href="https://chemins.be/lodelinsart/sentier/36"/><trkseg>
<trkpt lat="50.427488" lon="4.443098"><time>2026-05-03T02:35:31Z</time></trkpt>
<trkpt lat="50.427065" lon="4.442788"><time>2026-05-03T02:45:31Z</time></trkpt>
<trkpt lat="50.426607" lon="4.442168"><time>2026-05-03T02:55:31Z</time></trkpt>
</trkseg></trk>
<trk>
<name>hchld36</name>
<cmt>q</cmt>
<desc>Lodelinsart Sentier n°36 Chaussée de Châtelet / Sentier Martin</desc>
<link href="https://chemins.be/lodelinsart/sentier/36"/><trkseg>
<trkpt lat="50.426607" lon="4.442168"><time>2026-05-03T02:55:31Z</time></trkpt>
<trkpt lat="50.426320" lon="4.441548"><time>2026-05-03T03:05:31Z</time></trkpt>
<trkpt lat="50.425889" lon="4.440436"><time>2026-05-03T03:15:31Z</time></trkpt>
<trkpt lat="50.425845" lon="4.439661"><time>2026-05-03T03:25:31Z</time></trkpt>
<trkpt lat="50.425279" lon="4.438042"><time>2026-05-03T03:35:31Z</time></trkpt>
<trkpt lat="50.425018" lon="4.437873"><time>2026-05-03T03:45:31Z</time></trkpt>
</trkseg>
</trk>
</gpx>